Time;durP1;ratioP1;P1;durP2;ratioP2;P2;SDS_P1;SDS_P2;PMS_P1;PMS_P2;Temp;Humidity;BMP_temperature;BMP_pressure;BME280_temperature;BME280_humidity;BME280_pressure;Samples;Min_cycle;Max_cycle;Signal;HPM_P1;HPM_P2
2023/05/17 00:00:30;;;;;;;7.43;2.03;;;;;;;;;;6276237;22;19999;-96
2023/05/17 00:02:58;;;;;;;5.80;2.35;;;;;;;;;;6252125;22;20028;-95
2023/05/17 00:05:23;;;;;;;8.07;2.55;;;;;;;;;;6252318;22;20442;-96
2023/05/17 00:10:54;;;;;;;9.25;2.25;;;;;;;;;;6275576;22;20011;-96
2023/05/17 00:13:22;;;;;;;7.75;2.17;;;;;;;;;;6251793;22;20003;-95
2023/05/17 00:15:48;;;;;;;10.20;2.90;;;;;;;;;;6254074;22;20130;-96
2023/05/17 00:18:13;;;;;;;6.88;2.78;;;;;;;;;;6254191;22;20000;-96
2023/05/17 00:20:50;;;;;;;8.73;2.60;;;;;;;;;;6254259;22;20042;-95
2023/05/17 00:23:17;;;;;;;8.85;2.70;;;;;;;;;;6251068;22;20315;-95
2023/05/17 00:25:45;;;;;;;11.60;2.78;;;;;;;;;;6254109;22;20011;-95
2023/05/17 00:28:16;;;;;;;10.10;2.90;;;;;;;;;;6252852;22;20410;-95
2023/05/17 00:30:41;;;;;;;7.97;2.67;;;;;;;;;;6253403;22;20030;-96
2023/05/17 00:33:09;;;;;;;7.07;2.88;;;;;;;;;;6254442;22;20003;-96
2023/05/17 00:35:34;;;;;;;8.07;2.95;;;;;;;;;;6252546;22;20427;-96
2023/05/17 00:38:02;;;;;;;9.68;2.95;;;;;;;;;;6253276;22;20010;-95
2023/05/17 00:40:30;;;;;;;8.20;3.05;;;;;;;;;;6248867;22;20094;-96
2023/05/17 00:42:56;;;;;;;7.25;2.75;;;;;;;;;;6232429;22;19999;-95
2023/05/17 00:45:21;;;;;;;9.63;2.55;;;;;;;;;;6278436;22;20012;-96
2023/05/17 00:47:51;;;;;;;11.90;3.15;;;;;;;;;;6277776;22;20421;-95
2023/05/17 00:50:17;;;;;;;10.55;3.13;;;;;;;;;;6278756;22;20011;-95
2023/05/17 00:52:42;;;;;;;7.93;3.05;;;;;;;;;;6274654;22;20000;-96
2023/05/17 00:55:08;;;;;;;8.45;3.63;;;;;;;;;;6275366;22;20446;-95
2023/05/17 00:57:36;;;;;;;9.35;3.03;;;;;;;;;;6273249;22;20419;-94
2023/05/17 01:00:07;;;;;;;6.00;2.80;;;;;;;;;;6274180;22;20003;-95
2023/05/17 01:02:32;;;;;;;6.57;2.85;;;;;;;;;;6273756;22;20449;-95
2023/05/17 01:05:07;;;;;;;10.15;3.45;;;;;;;;;;6273292;22;20015;-95
2023/05/17 01:07:34;;;;;;;11.60;3.05;;;;;;;;;;6273938;22;20366;-96
2023/05/17 01:10:00;;;;;;;9.32;3.20;;;;;;;;;;6273710;22;20019;-96
2023/05/17 01:12:52;;;;;;;8.57;3.58;;;;;;;;;;6276519;22;20003;-96
2023/05/17 01:15:20;;;;;;;11.05;3.42;;;;;;;;;;6273387;22;20031;-96
2023/05/17 01:17:55;;;;;;;8.57;3.13;;;;;;;;;;6277963;22;20011;-94
2023/05/17 01:20:40;;;;;;;7.47;3.25;;;;;;;;;;6278456;22;20050;-96
2023/05/17 01:23:11;;;;;;;8.80;3.30;;;;;;;;;;6259144;22;20003;-95
2023/05/17 01:25:46;;;;;;;11.57;3.10;;;;;;;;;;6278501;22;20016;-96
2023/05/17 01:28:12;;;;;;;8.70;3.07;;;;;;;;;;6277231;22;20094;-95
2023/05/17 01:30:40;;;;;;;7.97;3.43;;;;;;;;;;6276882;22;20000;-96
2023/05/17 01:33:16;;;;;;;9.23;3.73;;;;;;;;;;6277203;22;20490;-95
2023/05/17 01:35:42;;;;;;;10.00;3.73;;;;;;;;;;6275061;22;20000;-95
2023/05/17 01:38:12;;;;;;;12.20;3.40;;;;;;;;;;6277577;22;20065;-96
2023/05/17 01:40:48;;;;;;;8.30;3.35;;;;;;;;;;6275622;22;20011;-95
2023/05/17 01:43:24;;;;;;;9.80;3.25;;;;;;;;;;6276559;22;20148;-95
2023/05/17 01:45:57;;;;;;;9.52;4.32;;;;;;;;;;6278705;22;20012;-96
2023/05/17 01:48:29;;;;;;;6.60;3.10;;;;;;;;;;6275503;22;19992;-96
2023/05/17 01:51:10;;;;;;;11.23;3.88;;;;;;;;;;6274810;22;20012;-94
2023/05/17 01:53:41;;;;;;;8.52;3.88;;;;;;;;;;6277067;22;20419;-95
2023/05/17 01:56:12;;;;;;;6.32;3.50;;;;;;;;;;6278601;22;20004;-95
2023/05/17 01:59:06;;;;;;;;;;;;;;;;;;;;;
2023/05/17 02:01:38;;;;;;;10.67;4.00;;;;;;;;;;6278247;22;20099;-96
2023/05/17 02:04:08;;;;;;;9.32;4.13;;;;;;;;;;6277971;22;20018;-96
2023/05/17 02:06:36;;;;;;;11.83;4.30;;;;;;;;;;6273844;22;20019;-96
2023/05/17 02:09:02;;;;;;;12.23;4.03;;;;;;;;;;6276452;22;20014;-94
2023/05/17 02:11:29;;;;;;;11.47;3.83;;;;;;;;;;6274225;22;20004;-95
2023/05/17 02:14:00;;;;;;;11.10;3.88;;;;;;;;;;6276624;22;20004;-96
2023/05/17 02:16:28;;;;;;;9.60;3.80;;;;;;;;;;6277428;22;20027;-96
2023/05/17 02:19:02;;;;;;;8.40;4.17;;;;;;;;;;6278073;22;19996;-95
2023/05/17 02:21:29;;;;;;;6.90;3.20;;;;;;;;;;6277418;22;20054;-95
2023/05/17 02:24:20;;;;;;;8.60;3.92;;;;;;;;;;6277382;22;20010;-96
2023/05/17 02:27:03;;;;;;;10.30;3.67;;;;;;;;;;6251570;22;20003;-96
2023/05/17 02:29:31;;;;;;;8.57;3.50;;;;;;;;;;6278571;22;20433;-96
2023/05/17 02:32:04;;;;;;;8.10;3.50;;;;;;;;;;6276491;22;20386;-94
2023/05/17 02:34:40;;;;;;;6.17;3.20;;;;;;;;;;6279427;22;20010;-95
2023/05/17 02:37:12;;;;;;;10.53;3.83;;;;;;;;;;6278590;22;20000;-96
2023/05/17 02:39:39;;;;;;;9.25;3.38;;;;;;;;;;6275372;22;20000;-96
2023/05/17 02:42:07;;;;;;;8.43;3.53;;;;;;;;;;6252128;22;19996;-95
2023/05/17 02:44:35;;;;;;;11.67;3.47;;;;;;;;;;6278273;22;20020;-96
2023/05/17 02:47:05;;;;;;;10.10;3.30;;;;;;;;;;6279324;22;19999;-96
2023/05/17 02:49:42;;;;;;;7.87;3.70;;;;;;;;;;6252639;22;20090;-95
2023/05/17 02:52:10;;;;;;;9.55;3.40;;;;;;;;;;6252401;22;20015;-96
2023/05/17 02:54:38;;;;;;;10.77;3.90;;;;;;;;;;6254111;22;20023;-95
2023/05/17 02:57:03;;;;;;;12.73;3.90;;;;;;;;;;6253291;22;20012;-95
2023/05/17 02:59:31;;;;;;;11.97;3.20;;;;;;;;;;6252392;22;20023;-96
2023/05/17 03:02:06;;;;;;;6.53;3.23;;;;;;;;;;6251809;22;20126;-94
2023/05/17 03:04:36;;;;;;;5.37;3.20;;;;;;;;;;6252778;22;20004;-95
2023/05/17 03:07:04;;;;;;;5.93;3.00;;;;;;;;;;6253088;22;20097;-96
2023/05/17 03:09:40;;;;;;;7.17;3.80;;;;;;;;;;6251856;22;20051;-96
2023/05/17 03:12:14;;;;;;;5.97;3.30;;;;;;;;;;6248572;22;19999;-96
2023/05/17 03:14:42;;;;;;;9.87;3.70;;;;;;;;;;6249826;22;20086;-96
2023/05/17 03:17:10;;;;;;;11.03;3.53;;;;;;;;;;6246851;22;20019;-95
2023/05/17 03:19:46;;;;;;;;;;;;;;;;;;;;;
2023/05/17 03:22:20;;;;;;;7.87;3.70;;;;;;;;;;6274968;22;20056;-95
2023/05/17 03:24:48;;;;;;;11.30;4.17;;;;;;;;;;6249854;22;20007;-95
2023/05/17 03:27:16;;;;;;;14.33;4.17;;;;;;;;;;6248796;22;20000;-95
2023/05/17 03:29:43;;;;;;;8.97;4.60;;;;;;;;;;6250084;22;19999;-96
2023/05/17 03:32:16;;;;;;;9.67;3.63;;;;;;;;;;6251325;22;20004;-96
2023/05/17 03:34:42;;;;;;;9.60;3.70;;;;;;;;;;6253802;22;20038;-96
2023/05/17 03:37:30;;;;;;;12.10;4.00;;;;;;;;;;6255387;22;20004;-96
2023/05/17 03:40:04;;;;;;;13.17;4.33;;;;;;;;;;6254659;22;19991;-96
2023/05/17 03:42:32;;;;;;;9.20;4.00;;;;;;;;;;6255481;22;20035;-96
2023/05/17 03:45:01;;;;;;;11.83;3.93;;;;;;;;;;6253775;22;20182;-96
2023/05/17 03:47:26;;;;;;;11.40;4.10;;;;;;;;;;6254807;22;20008;-95
2023/05/17 03:49:56;;;;;;;11.27;4.50;;;;;;;;;;6256466;22;19999;-95
2023/05/17 03:52:25;;;;;;;10.80;3.60;;;;;;;;;;6253868;22;20008;-96
2023/05/17 03:54:52;;;;;;;7.90;3.67;;;;;;;;;;6255546;22;20000;-96
2023/05/17 03:57:22;;;;;;;10.23;3.73;;;;;;;;;;6251492;22;20112;-96
2023/05/17 03:59:58;;;;;;;10.13;3.50;;;;;;;;;;6252353;22;20003;-95
2023/05/17 04:02:26;;;;;;;9.23;3.33;;;;;;;;;;6253903;22;20000;-96
2023/05/17 04:04:56;;;;;;;12.90;4.70;;;;;;;;;;6254965;22;20055;-95
2023/05/17 04:07:40;;;;;;;8.23;3.87;;;;;;;;;;6249505;22;20004;-96
2023/05/17 04:10:08;;;;;;;9.03;3.60;;;;;;;;;;6255655;22;20000;-95
2023/05/17 04:12:51;;;;;;;9.90;3.93;;;;;;;;;;6255124;22;20004;-96
2023/05/17 04:15:20;;;;;;;9.70;4.17;;;;;;;;;;6255458;22;20453;-95
2023/05/17 04:17:45;;;;;;;11.33;3.90;;;;;;;;;;6255826;22;20027;-96
2023/05/17 04:20:13;;;;;;;12.77;3.97;;;;;;;;;;6256184;22;19991;-94
2023/05/17 04:22:41;;;;;;;10.50;3.93;;;;;;;;;;6253249;22;20007;-96
2023/05/17 04:25:30;;;;;;;;;;;;;;;;;;;;;
2023/05/17 04:28:05;;;;;;;9.20;3.57;;;;;;;;;;6282645;22;20030;-96
2023/05/17 04:30:33;;;;;;;10.33;4.90;;;;;;;;;;6254249;22;20441;-96
2023/05/17 04:33:01;;;;;;;13.27;4.13;;;;;;;;;;6254105;22;20000;-95
2023/05/17 04:35:44;;;;;;;10.23;4.27;;;;;;;;;;6255822;22;20063;-95
2023/05/17 04:38:15;;;;;;;8.43;3.78;;;;;;;;;;6247684;23;19997;-95
2023/05/17 04:40:42;;;;;;;12.55;3.85;;;;;;;;;;6243278;22;20059;-96
2023/05/17 04:43:10;;;;;;;9.43;4.15;;;;;;;;;;6251434;22;20509;-95
2023/05/17 04:45:52;;;;;;;14.10;3.92;;;;;;;;;;6251203;22;20065;-94
2023/05/17 04:48:19;;;;;;;11.98;4.47;;;;;;;;;;6252049;22;20070;-96
2023/05/17 04:50:49;;;;;;;7.47;3.70;;;;;;;;;;6252244;22;20090;-96
2023/05/17 04:53:37;;;;;;;8.55;4.35;;;;;;;;;;6256077;22;20050;-96
2023/05/17 04:56:05;;;;;;;8.68;4.15;;;;;;;;;;6252699;22;20004;-95
2023/05/17 04:58:38;;;;;;;8.50;4.22;;;;;;;;;;6252170;22;20362;-96
2023/05/17 05:01:15;;;;;;;12.85;4.50;;;;;;;;;;6253528;22;20514;-96
2023/05/17 05:03:45;;;;;;;8.55;4.00;;;;;;;;;;6255094;22;19992;-95
2023/05/17 05:06:31;;;;;;;8.07;4.05;;;;;;;;;;6254550;22;20031;-96
2023/05/17 05:09:04;;;;;;;11.60;4.22;;;;;;;;;;6280493;22;20019;-96
2023/05/17 05:11:32;;;;;;;11.20;3.95;;;;;;;;;;6253797;22;20062;-96
2023/05/17 05:14:00;;;;;;;13.57;4.38;;;;;;;;;;6255020;22;20016;-95
2023/05/17 05:16:33;;;;;;;12.75;4.10;;;;;;;;;;6254949;22;20084;-95
2023/05/17 05:19:05;;;;;;;11.55;4.25;;;;;;;;;;6254026;22;20107;-96
2023/05/17 05:21:38;;;;;;;11.23;4.22;;;;;;;;;;6252449;22;20011;-95
2023/05/17 05:24:09;;;;;;;9.82;3.83;;;;;;;;;;6252676;22;20004;-96
2023/05/17 05:26:36;;;;;;;10.38;4.03;;;;;;;;;;6258490;22;20039;-96
2023/05/17 05:29:04;;;;;;;7.60;4.10;;;;;;;;;;6258183;22;19999;-96
2023/05/17 05:31:50;;;;;;;11.82;4.55;;;;;;;;;;6258749;22;20010;-96
2023/05/17 05:34:18;;;;;;;12.52;4.35;;;;;;;;;;6257883;22;20083;-96
2023/05/17 05:36:53;;;;;;;;;;;;;;;;;;;;;
2023/05/17 05:39:22;;;;;;;9.80;4.45;;;;;;;;;;6284591;22;20430;-96
2023/05/17 05:41:50;;;;;;;17.42;4.63;;;;;;;;;;6257129;22;20004;-96
2023/05/17 05:44:42;;;;;;;12.45;4.78;;;;;;;;;;6257709;22;20018;-96
2023/05/17 05:47:36;;;;;;;11.52;4.18;;;;;;;;;;6255939;22;20015;-95
2023/05/17 05:50:05;;;;;;;11.18;4.13;;;;;;;;;;6243713;22;20031;-96
2023/05/17 05:53:01;;;;;;;13.00;4.68;;;;;;;;;;6251768;22;20010;-96
2023/05/17 05:55:32;;;;;;;16.48;4.72;;;;;;;;;;6258067;22;20000;-94
2023/05/17 05:58:10;;;;;;;;;;;;;;;;;;;;;
2023/05/17 06:00:41;;;;;;;18.83;5.05;;;;;;;;;;6283964;22;20319;-96
2023/05/17 06:03:08;;;;;;;21.23;5.30;;;;;;;;;;6228786;22;20007;-96
2023/05/17 06:05:44;;;;;;;13.45;4.97;;;;;;;;;;6256606;22;20019;-96
2023/05/17 06:08:18;;;;;;;16.90;4.90;;;;;;;;;;6255424;22;20090;-96
2023/05/17 06:10:49;;;;;;;16.05;4.97;;;;;;;;;;6249140;22;20012;-96
2023/05/17 06:13:32;;;;;;;15.63;5.00;;;;;;;;;;6251843;22;20035;-96
2023/05/17 06:16:22;;;;;;;19.65;5.38;;;;;;;;;;6254362;22;20106;-95
2023/05/17 06:21:52;;;;;;;;;;;;;;;;;;6278308;22;20010;-95
2023/05/17 06:24:36;;;;;;;15.88;5.50;;;;;;;;;;6253437;22;19911;-96
2023/05/17 06:27:14;;;;;;;;;;;;;;;;;;;;;
2023/05/17 06:29:42;;;;;;;18.15;5.25;;;;;;;;;;6272593;22;20019;-96
2023/05/17 06:32:15;;;;;;;11.43;4.15;;;;;;;;;;6255496;22;19999;-95
2023/05/17 06:37:31;;;;;;;13.45;5.40;;;;;;;;;;6264913;22;20015;-95
2023/05/17 06:40:09;;;;;;;19.83;5.90;;;;;;;;;;6279048;22;20291;-96
2023/05/17 06:42:41;;;;;;;25.15;5.70;;;;;;;;;;6281915;22;20004;-96
2023/05/17 06:45:11;;;;;;;15.97;4.47;;;;;;;;;;6250186;22;20011;-95
2023/05/17 06:48:00;;;;;;;13.63;4.30;;;;;;;;;;6250300;22;20027;-96
2023/05/17 06:50:35;;;;;;;13.77;5.35;;;;;;;;;;6248403;22;20003;-95
2023/05/17 06:53:03;;;;;;;10.98;4.05;;;;;;;;;;6276388;22;20004;-95
2023/05/17 06:55:39;;;;;;;10.73;3.42;;;;;;;;;;6275811;22;20007;-95
2023/05/17 06:58:09;;;;;;;11.65;3.20;;;;;;;;;;6250325;22;20030;-96
2023/05/17 07:00:35;;;;;;;14.38;4.45;;;;;;;;;;6262205;22;20010;-96
2023/05/17 07:03:03;;;;;;;14.40;3.80;;;;;;;;;;6271592;22;20008;-96
2023/05/17 07:06:04;;;;;;;6.82;2.75;;;;;;;;;;6248912;22;20064;-94
2023/05/17 07:09:06;;;;;;;10.00;2.35;;;;;;;;;;6273767;22;20004;-94
2023/05/17 07:11:37;;;;;;;;;;;;;;;;;;6274524;22;20011;-96
2023/05/17 07:14:05;;;;;;;12.77;3.80;;;;;;;;;;6250920;22;19903;-96
2023/05/17 07:16:36;;;;;;;20.33;4.63;;;;;;;;;;6248883;22;19995;-96
2023/05/17 07:19:11;;;;;;;13.43;4.65;;;;;;;;;;6248020;22;20450;-96
2023/05/17 07:21:38;;;;;;;8.75;2.97;;;;;;;;;;6245080;22;20004;-95
2023/05/17 07:24:08;;;;;;;10.25;4.13;;;;;;;;;;6275157;22;20034;-96
2023/05/17 07:26:45;;;;;;;9.25;2.78;;;;;;;;;;6249537;22;20004;-96
2023/05/17 07:29:11;;;;;;;12.88;2.78;;;;;;;;;;6272514;22;20000;-94
2023/05/17 07:32:14;;;;;;;9.35;2.92;;;;;;;;;;6250919;22;20012;-94
2023/05/17 07:34:47;;;;;;;10.40;3.10;;;;;;;;;;6272114;22;20027;-95
2023/05/17 07:37:15;;;;;;;14.05;2.30;;;;;;;;;;6249299;22;19996;-96
2023/05/17 07:39:45;;;;;;;16.02;3.03;;;;;;;;;;6251484;22;20023;-97
2023/05/17 07:45:17;;;;;;;;;;;;;;;;;;;;;
2023/05/17 07:47:43;;;;;;;8.75;2.83;;;;;;;;;;6275958;22;20066;-94
2023/05/17 07:50:31;;;;;;;9.73;2.28;;;;;;;;;;6247294;22;20322;-96
2023/05/17 07:53:03;;;;;;;11.05;2.17;;;;;;;;;;6249464;22;19996;-95
2023/05/17 07:55:31;;;;;;;6.40;2.25;;;;;;;;;;6246632;22;20043;-96
2023/05/17 07:58:00;;;;;;;12.48;3.17;;;;;;;;;;6248682;22;19988;-96
2023/05/17 08:00:48;;;;;;;11.50;2.03;;;;;;;;;;6249425;22;20015;-94
2023/05/17 08:03:23;;;;;;;;;;;;;;;;;;;;;
2023/05/17 08:06:02;;;;;;;;;;;;;;;;;;;;;
2023/05/17 08:08:32;;;;;;;7.72;2.35;;;;;;;;;;6272444;22;20074;-95
2023/05/17 08:11:00;;;;;;;6.82;2.03;;;;;;;;;;6247700;22;20426;-94
2023/05/17 08:13:30;;;;;;;12.02;2.20;;;;;;;;;;6246576;22;20411;-93
2023/05/17 08:16:06;;;;;;;;;;;;;;;;;;;;;
2023/05/17 08:18:45;;;;;;;;;;;;;;;;;;;;;
2023/05/17 08:21:16;;;;;;;7.82;2.17;;;;;;;;;;6274385;22;20079;-93
2023/05/17 08:23:49;;;;;;;7.47;1.10;;;;;;;;;;6275315;22;20006;-94
2023/05/17 08:26:32;;;;;;;13.38;1.45;;;;;;;;;;6272966;22;20055;-93
2023/05/17 08:29:00;;;;;;;9.85;1.27;;;;;;;;;;6249788;22;20004;-94
2023/05/17 08:31:35;;;;;;;;;;;;;;;;;;;;;
2023/05/17 08:34:19;;;;;;;3.58;1.27;;;;;;;;;;6278168;22;20091;-96
2023/05/17 08:39:30;;;;;;;5.60;1.40;;;;;;;;;;6252707;22;20119;-95
2023/05/17 08:42:00;;;;;;;6.45;1.02;;;;;;;;;;6251592;22;20011;-95
2023/05/17 08:44:40;;;;;;;5.28;0.80;;;;;;;;;;6251076;22;20046;-96
2023/05/17 08:50:19;;;;;;;11.82;1.40;;;;;;;;;;6263838;22;19996;-93
2023/05/17 08:53:04;;;;;;;6.43;1.00;;;;;;;;;;6250467;22;20035;-95
2023/05/17 08:58:28;;;;;;;6.25;1.58;;;;;;;;;;6275238;22;20008;-95
2023/05/17 09:01:01;;;;;;;11.48;1.80;;;;;;;;;;6250819;22;19992;-96
2023/05/17 09:03:35;;;;;;;12.63;1.42;;;;;;;;;;6250163;22;20435;-96
2023/05/17 09:06:28;;;;;;;4.78;1.65;;;;;;;;;;6249449;22;20453;-95
2023/05/17 09:09:13;;;;;;;7.57;1.20;;;;;;;;;;6249329;22;20089;-95
2023/05/17 09:11:59;;;;;;;10.45;1.85;;;;;;;;;;6249717;22;20076;-95
2023/05/17 09:14:49;;;;;;;5.05;1.10;;;;;;;;;;6250948;22;20419;-94
2023/05/17 09:17:38;;;;;;;;;;;;;;;;;;;;;
2023/05/17 09:20:07;;;;;;;6.20;1.20;;;;;;;;;;6277752;22;20055;-94
2023/05/17 09:22:43;;;;;;;4.43;1.33;;;;;;;;;;6250343;22;19995;-95
2023/05/17 09:25:08;;;;;;;12.15;1.38;;;;;;;;;;6249010;22;20494;-94
2023/05/17 09:27:55;;;;;;;7.05;1.45;;;;;;;;;;6250259;22;20007;-94
2023/05/17 09:30:30;;;;;;;6.82;1.10;;;;;;;;;;6246431;22;20091;-95
2023/05/17 09:33:05;;;;;;;6.40;1.60;;;;;;;;;;6251142;22;19991;-96
2023/05/17 09:35:58;;;;;;;9.13;1.40;;;;;;;;;;6247766;22;20427;-94
2023/05/17 09:38:24;;;;;;;9.82;1.50;;;;;;;;;;6277498;22;20004;-94
2023/05/17 09:40:53;;;;;;;7.40;1.50;;;;;;;;;;6250012;22;20007;-96
2023/05/17 09:43:40;;;;;;;5.90;1.42;;;;;;;;;;6250079;22;20599;-94
2023/05/17 09:46:17;;;;;;;3.40;1.23;;;;;;;;;;6234169;22;20068;-95
2023/05/17 09:48:45;;;;;;;6.30;1.63;;;;;;;;;;6247096;22;20004;-94
2023/05/17 09:51:36;;;;;;;6.85;1.67;;;;;;;;;;6250650;22;19995;-94
2023/05/17 09:54:05;;;;;;;12.95;2.50;;;;;;;;;;6249324;22;20007;-95
2023/05/17 09:56:31;;;;;;;8.52;1.70;;;;;;;;;;6249782;22;20004;-96
2023/05/17 09:58:59;;;;;;;6.53;1.50;;;;;;;;;;6251172;22;20004;-95
2023/05/17 10:01:39;;;;;;;5.93;1.92;;;;;;;;;;6248917;22;20431;-96
2023/05/17 10:04:06;;;;;;;8.07;1.30;;;;;;;;;;6252666;22;20471;-94
2023/05/17 10:06:40;;;;;;;6.97;1.10;;;;;;;;;;6248945;22;20011;-95
2023/05/17 10:09:27;;;;;;;5.38;1.25;;;;;;;;;;6251441;22;20003;-95
2023/05/17 10:11:56;;;;;;;14.13;2.20;;;;;;;;;;6246715;22;20095;-96
2023/05/17 10:14:58;;;;;;;;;;;;;;;;;;;;;
2023/05/17 10:17:43;;;;;;;5.27;1.00;;;;;;;;;;6278433;22;20392;-95
2023/05/17 10:20:31;;;;;;;11.27;1.88;;;;;;;;;;6249491;22;20428;-95
2023/05/17 10:22:57;;;;;;;9.20;1.80;;;;;;;;;;6253819;22;20082;-95
2023/05/17 10:25:35;;;;;;;;;;;;;;;;;;;;;
2023/05/17 10:28:21;;;;;;;5.07;1.52;;;;;;;;;;6275705;22;20076;-94
2023/05/17 10:31:08;;;;;;;9.40;2.00;;;;;;;;;;6247953;22;20012;-95
2023/05/17 10:36:32;;;;;;;9.68;1.60;;;;;;;;;;6263413;22;20086;-95
2023/05/17 10:39:11;;;;;;;;;;;;;;;;;;;;;
2023/05/17 10:42:03;;;;;;;11.63;1.77;;;;;;;;;;6279984;22;20385;-95
2023/05/17 10:44:49;;;;;;;5.63;1.63;;;;;;;;;;6248412;22;20023;-95
2023/05/17 10:47:22;;;;;;;8.25;1.70;;;;;;;;;;6249380;22;20419;-95
2023/05/17 10:52:45;;;;;;;5.72;1.25;;;;;;;;;;6265031;22;20069;-93
2023/05/17 10:55:16;;;;;;;11.13;1.20;;;;;;;;;;6248430;22;20089;-96
2023/05/17 11:04:21;;;;;;;6.40;1.50;;;;;;;;;;6277257;22;20018;-95
2023/05/17 11:07:22;;;;;;;;;;;;;;;;;;;;;
2023/05/17 11:10:18;;;;;;;;;;;;;;;;;;;;;
2023/05/17 11:12:58;;;;;;;5.03;1.42;;;;;;;;;;6270805;22;20024;-96
2023/05/17 11:15:53;;;;;;;2.10;1.02;;;;;;;;;;6251001;22;19996;-96
2023/05/17 11:18:17;;;;;;;9.68;1.33;;;;;;;;;;6276032;22;20034;-95
2023/05/17 11:21:13;;;;;;;;;;;;;;;;;;;;;
2023/05/17 11:23:50;;;;;;;7.82;1.10;;;;;;;;;;6262512;22;20023;-96
2023/05/17 11:26:27;;;;;;;3.90;1.13;;;;;;;;;;6249369;22;20011;-95
2023/05/17 11:29:02;;;;;;;9.27;1.55;;;;;;;;;;6249993;22;20370;-94
2023/05/17 11:34:34;;;;;;;5.53;1.33;;;;;;;;;;6277472;22;20014;-95
2023/05/17 11:37:04;;;;;;;7.18;1.52;;;;;;;;;;6249779;22;20003;-96
2023/05/17 11:40:11;;;;;;;8.23;2.10;;;;;;;;;;6243054;22;20042;-95
2023/05/17 11:43:01;;;;;;;;;;;;;;;;;;;;;
2023/05/17 11:48:50;;;;;;;;;;;;;;;;;;;;;
2023/05/17 11:51:26;;;;;;;;;;;;;;;;;;;;;
2023/05/17 11:54:08;;;;;;;;;;;;;;;;;;;;;
2023/05/17 11:56:52;;;;;;;;;;;;;;;;;;;;;
2023/05/17 11:59:30;;;;;;;6.28;1.00;;;;;;;;;;6277852;22;20095;-95
2023/05/17 12:02:31;;;;;;;;;;;;;;;;;;;;;
2023/05/17 12:05:08;;;;;;;10.23;1.52;;;;;;;;;;6271756;22;20071;-96
2023/05/17 12:08:04;;;;;;;9.60;1.40;;;;;;;;;;6250188;22;19999;-96
2023/05/17 12:10:55;;;;;;;3.67;0.77;;;;;;;;;;6238461;22;20042;-95
2023/05/17 12:13:51;;;;;;;;;;;;;;;;;;;;;
2023/05/17 12:16:32;;;;;;;2.60;0.70;;;;;;;;;;6213778;22;20082;-95
2023/05/17 12:22:10;;;;;;;;;;;;;;;;;;;;;
2023/05/17 12:25:23;;;;;;;;;;;;;;;;;;;;;
2023/05/17 12:31:46;;;;;;;;;;;;;;;;;;;;;
2023/05/17 12:37:19;;;;;;;1.83;0.40;;;;;;;;;;6109967;23;20010;-95
2023/05/17 12:40:16;;;;;;;3.15;0.82;;;;;;;;;;6091406;23;20018;-95
2023/05/17 12:43:11;;;;;;;4.55;0.85;;;;;;;;;;6070808;23;20003;-95
2023/05/17 12:45:42;;;;;;;3.40;0.77;;;;;;;;;;6069617;23;20034;-95
2023/05/17 12:51:38;;;;;;;;;;;;;;;;;;;;;
2023/05/17 13:00:48;;;;;;;2.88;0.90;;;;;;;;;;6221971;23;20008;-96
2023/05/17 13:03:25;;;;;;;7.95;1.00;;;;;;;;;;6245913;23;20434;-96
2023/05/17 13:06:29;;;;;;;;;;;;;;;;;;;;;
2023/05/17 13:09:17;;;;;;;;;;;;;;;;;;;;;
2023/05/17 13:11:50;;;;;;;5.15;1.02;;;;;;;;;;6246008;23;20118;-95
2023/05/17 13:14:36;;;;;;;6.57;1.10;;;;;;;;;;6220615;23;20022;-96
2023/05/17 13:17:24;;;;;;;5.75;0.93;;;;;;;;;;6219733;22;20024;-96
2023/05/17 13:19:52;;;;;;;2.40;0.70;;;;;;;;;;6218935;23;20000;-95
2023/05/17 13:22:31;;;;;;;7.07;0.95;;;;;;;;;;6220885;23;20003;-96
2023/05/17 13:25:04;;;;;;;11.48;1.27;;;;;;;;;;6218477;23;20014;-95
2023/05/17 13:27:51;;;;;;;2.38;1.00;;;;;;;;;;6222081;23;20088;-96
2023/05/17 13:30:50;;;;;;;5.20;1.10;;;;;;;;;;6219149;23;20023;-96
2023/05/17 13:33:30;;;;;;;1.38;0.63;;;;;;;;;;6222193;23;20019;-96
2023/05/17 13:35:55;;;;;;;2.22;0.57;;;;;;;;;;6217631;23;20091;-96
2023/05/17 13:44:31;;;;;;;1.85;0.90;;;;;;;;;;6215291;23;20422;-96
2023/05/17 13:47:28;;;;;;;4.15;1.10;;;;;;;;;;6215832;23;20005;-94
2023/05/17 13:50:14;;;;;;;4.93;1.55;;;;;;;;;;6189513;23;20004;-96
2023/05/17 13:52:51;;;;;;;2.83;1.30;;;;;;;;;;6216042;23;20012;-95
2023/05/17 13:55:29;;;;;;;3.58;0.85;;;;;;;;;;6216412;23;20140;-96
2023/05/17 13:58:08;;;;;;;4.72;1.08;;;;;;;;;;6216444;23;20083;-96
2023/05/17 14:01:00;;;;;;;;;;;;;;;;;;;;;
2023/05/17 14:03:42;;;;;;;;;;;;;;;;;;;;;
2023/05/17 14:06:12;;;;;;;9.45;1.20;;;;;;;;;;6216415;23;20500;-95
2023/05/17 14:08:40;;;;;;;6.10;0.90;;;;;;;;;;6216009;23;20306;-96
2023/05/17 14:14:17;;;;;;;3.35;1.02;;;;;;;;;;6170066;23;20032;-96
2023/05/17 14:16:44;;;;;;;3.90;1.02;;;;;;;;;;6215688;23;20080;-95
2023/05/17 14:19:57;;;;;;;6.28;1.10;;;;;;;;;;6215197;23;20702;-94
2023/05/17 14:22:16;;;;;;;4.80;1.33;;;;;;;;;;6203194;23;20300;-95
2023/05/17 14:24:47;;;;;;;5.53;1.10;;;;;;;;;;6216283;23;20004;-95
2023/05/17 14:27:26;;;;;;;4.28;1.30;;;;;;;;;;6215603;23;20383;-96
2023/05/17 14:30:15;;;;;;;5.70;1.50;;;;;;;;;;6215667;23;20001;-96
2023/05/17 14:33:05;;;;;;;;;;;;;;;;;;;;;
2023/05/17 14:35:48;;;;;;;5.22;1.27;;;;;;;;;;6214151;23;20064;-95
2023/05/17 14:38:16;;;;;;;6.00;1.38;;;;;;;;;;6213020;23;20014;-95
2023/05/17 14:40:45;;;;;;;5.00;1.33;;;;;;;;;;6214538;23;20012;-95
2023/05/17 14:46:23;;;;;;;6.95;1.58;;;;;;;;;;6224385;23;20015;-95
2023/05/17 14:49:02;;;;;;;;;;;;;;;;;;;;;
2023/05/17 14:51:40;;;;;;;5.10;1.55;;;;;;;;;;6245337;23;20083;-94
2023/05/17 14:54:28;;;;;;;6.97;1.00;;;;;;;;;;6219682;23;20004;-95
2023/05/17 14:57:09;;;;;;;5.88;1.17;;;;;;;;;;6246270;22;20004;-94
2023/05/17 14:59:48;;;;;;;3.40;1.08;;;;;;;;;;6218559;23;20000;-95
2023/05/17 15:02:23;;;;;;;4.53;0.90;;;;;;;;;;6218365;23;20108;-96
2023/05/17 15:04:54;;;;;;;2.35;1.00;;;;;;;;;;6217139;23;20000;-95
2023/05/17 15:07:25;;;;;;;6.85;1.40;;;;;;;;;;6216428;23;20347;-96
2023/05/17 15:10:33;;;;;;;5.38;1.10;;;;;;;;;;6216433;23;20007;-95
2023/05/17 15:12:39;;;;;;;2.47;1.02;;;;;;;;;;6234782;23;20004;-96
2023/05/17 15:15:07;;;;;;;7.55;1.38;;;;;;;;;;6220853;23;20059;-96
2023/05/17 15:17:59;;;;;;;7.20;1.20;;;;;;;;;;6221336;23;20000;-96
2023/05/17 15:20:29;;;;;;;2.67;0.95;;;;;;;;;;6220088;23;20004;-96
2023/05/17 15:22:56;;;;;;;4.28;1.30;;;;;;;;;;6218901;23;20008;-96
2023/05/17 15:25:27;;;;;;;7.38;1.08;;;;;;;;;;6222162;23;20039;-96
2023/05/17 15:27:55;;;;;;;6.43;1.60;;;;;;;;;;6222597;23;20059;-96
2023/05/17 15:30:26;;;;;;;4.30;1.00;;;;;;;;;;6223442;23;20091;-96
2023/05/17 15:33:08;;;;;;;;;;;;;;;;;;;;;
2023/05/17 15:35:33;;;;;;;;;;;;;;;;;;6249159;23;20075;-95
2023/05/17 15:38:06;;;;;;;5.70;1.33;;;;;;;;;;6247172;22;19904;-96
2023/05/17 15:40:55;;;;;;;6.00;1.10;;;;;;;;;;6219050;23;20011;-96
2023/05/17 15:46:11;;;;;;;7.13;1.60;;;;;;;;;;6230792;23;20026;-96
2023/05/17 15:48:36;;;;;;;3.38;1.35;;;;;;;;;;6221623;23;20004;-96
2023/05/17 15:51:02;;;;;;;2.65;1.05;;;;;;;;;;6220636;23;20011;-94
2023/05/17 15:53:35;;;;;;;3.17;0.98;;;;;;;;;;6220075;23;20018;-95
2023/05/17 15:56:01;;;;;;;2.58;0.90;;;;;;;;;;6221782;23;20276;-95
2023/05/17 15:58:26;;;;;;;3.13;0.90;;;;;;;;;;6222203;23;20000;-95
2023/05/17 16:00:52;;;;;;;2.63;1.02;;;;;;;;;;6218614;23;20438;-96
2023/05/17 16:03:25;;;;;;;4.57;0.90;;;;;;;;;;6220675;23;20004;-95
2023/05/17 16:05:51;;;;;;;5.88;1.40;;;;;;;;;;6220582;23;20031;-94
2023/05/17 16:08:19;;;;;;;5.72;1.50;;;;;;;;;;6220496;23;20011;-96
2023/05/17 16:10:46;;;;;;;6.32;1.73;;;;;;;;;;6218992;23;20012;-96
2023/05/17 16:13:17;;;;;;;8.30;1.13;;;;;;;;;;6218472;23;20000;-94
2023/05/17 16:15:45;;;;;;;6.07;1.23;;;;;;;;;;6221518;23;20015;-96
2023/05/17 16:18:22;;;;;;;;;;;;;;;;;;;;;
2023/05/17 16:20:55;;;;;;;7.63;1.38;;;;;;;;;;6245986;23;20087;-96
2023/05/17 16:23:20;;;;;;;4.03;1.00;;;;;;;;;;6217168;23;19996;-95
2023/05/17 16:25:48;;;;;;;3.40;1.02;;;;;;;;;;6218498;23;20099;-94
2023/05/17 16:28:23;;;;;;;;;;;;;;;;;;;;;
2023/05/17 16:30:49;;;;;;;3.17;1.10;;;;;;;;;;6245138;23;20371;-96
2023/05/17 16:33:15;;;;;;;6.00;1.23;;;;;;;;;;6219122;23;20024;-95
2023/05/17 16:35:40;;;;;;;10.85;1.05;;;;;;;;;;6217095;23;20087;-96
2023/05/17 16:38:06;;;;;;;5.95;1.10;;;;;;;;;;6218627;23;20367;-95
2023/05/17 16:40:31;;;;;;;3.67;0.90;;;;;;;;;;6218538;23;20039;-95
2023/05/17 16:42:59;;;;;;;5.07;1.02;;;;;;;;;;6216858;23;20019;-96
2023/05/17 16:45:25;;;;;;;7.95;1.25;;;;;;;;;;6219274;23;20016;-96
2023/05/17 16:47:52;;;;;;;5.13;1.00;;;;;;;;;;6220567;23;20415;-95
2023/05/17 16:50:21;;;;;;;9.18;1.50;;;;;;;;;;6217316;23;20004;-96
2023/05/17 16:52:48;;;;;;;4.53;1.35;;;;;;;;;;6219887;23;20000;-95
2023/05/17 16:55:16;;;;;;;2.72;1.08;;;;;;;;;;6219189;23;20004;-94
2023/05/17 16:57:41;;;;;;;7.03;1.05;;;;;;;;;;6216949;23;20002;-93
2023/05/17 17:00:07;;;;;;;2.50;1.08;;;;;;;;;;6216050;23;20019;-95
2023/05/17 17:02:35;;;;;;;5.40;1.02;;;;;;;;;;6219336;23;20046;-96
2023/05/17 17:05:03;;;;;;;4.55;1.90;;;;;;;;;;6218993;23;20012;-95
2023/05/17 17:07:31;;;;;;;8.95;1.08;;;;;;;;;;6219305;23;20341;-95
2023/05/17 17:09:56;;;;;;;4.63;1.38;;;;;;;;;;6218478;23;20077;-95
2023/05/17 17:12:21;;;;;;;7.80;1.90;;;;;;;;;;6219402;23;20023;-96
2023/05/17 17:14:47;;;;;;;8.13;1.58;;;;;;;;;;6218784;23;20020;-95